createdAt,value
2017-09-22T00:01:15.576Z,100659.77
2017-09-22T00:03:44.636Z,100654.88
2017-09-22T00:06:13.689Z,100654.88
2017-09-22T00:08:42.787Z,100651.78
2017-09-22T00:11:12.605Z,100659.32
2017-09-22T00:13:41.655Z,100658.75
2017-09-22T00:16:11.468Z,100655.04
2017-09-22T00:18:41.295Z,100658.64
2017-09-22T00:21:11.131Z,100656.88
2017-09-22T00:23:40.216Z,100658.03
2017-09-22T00:26:09.285Z,100651.88
2017-09-22T00:28:39.096Z,100651.94
2017-09-22T00:31:08.927Z,100648.52
2017-09-22T00:33:38.127Z,100641.86
2017-09-22T00:36:07.944Z,100645.41
2017-09-22T00:38:37.015Z,100645.62
2017-09-22T00:41:06.836Z,100650.69
2017-09-22T00:43:36.657Z,100642.91
2017-09-22T00:46:05.711Z,100642.59
2017-09-22T00:48:36.288Z,100638.23
2017-09-22T00:51:05.348Z,100642.44
2017-09-22T00:53:34.414Z,100634.75
2017-09-22T00:56:03.497Z,100632.10
2017-09-22T00:58:33.361Z,100634.03
2017-09-22T01:01:03.276Z,100631.58
2017-09-22T01:03:32.317Z,100630.37
2017-09-22T01:06:01.374Z,100631.17
2017-09-22T01:08:31.331Z,100629.31
2017-09-22T01:11:00.371Z,100623.34
2017-09-22T01:13:30.206Z,100629.70
2017-09-22T01:15:59.261Z,100622.59
2017-09-22T01:18:28.427Z,100623.16
2017-09-22T01:20:57.488Z,100628.69
2017-09-22T01:23:27.305Z,100624.77
2017-09-22T01:25:56.421Z,100618.28
2017-09-22T01:28:25.484Z,100621.11
2017-09-22T01:30:55.321Z,100615.50
2017-09-22T01:33:24.388Z,100618.73
2017-09-22T01:35:54.242Z,100614.41
2017-09-22T01:38:23.568Z,100614.64
2017-09-22T01:40:52.650Z,100611.63
2017-09-22T01:43:21.715Z,100613.56
2017-09-22T01:45:50.803Z,100615.95
2017-09-22T01:48:20.635Z,100614.64
2017-09-22T01:50:49.719Z,100609.58
2017-09-22T01:53:18.781Z,100609.68
2017-09-22T01:55:47.993Z,100609.85
2017-09-22T01:58:17.795Z,100612.75
2017-09-22T02:00:47.638Z,100611.53
2017-09-22T02:03:16.724Z,100606.91
2017-09-22T02:05:46.765Z,100598.86
2017-09-22T02:08:15.849Z,100598.16
2017-09-22T02:10:44.957Z,100605.72
2017-09-22T02:13:14.025Z,100599.40
2017-09-22T02:15:43.837Z,100602.36
2017-09-22T02:18:13.689Z,100603.69
2017-09-22T02:20:42.743Z,100609.87
2017-09-22T02:23:12.568Z,100606.98
2017-09-22T02:25:41.945Z,100613.16
2017-09-22T02:28:11.003Z,100599.50
2017-09-22T02:30:40.068Z,100606.78
2017-09-22T02:33:09.144Z,100607.52
2017-09-22T02:35:41.664Z,100598.94
2017-09-22T02:38:11.723Z,100600.70
2017-09-22T02:40:41.687Z,100603.30
2017-09-22T02:43:10.755Z,100598.64
2017-09-22T02:45:39.808Z,100596.48
2017-09-22T02:48:08.883Z,100594.95
2017-09-22T02:50:38.103Z,100595.75
2017-09-22T02:53:07.155Z,100589.03
2017-09-22T02:55:36.256Z,100594.81
2017-09-22T02:58:05.324Z,100596.64
2017-09-22T03:00:35.335Z,100596.81
2017-09-22T03:03:05.152Z,100592.42
2017-09-22T03:05:35.005Z,100594.48
2017-09-22T03:08:04.295Z,100599.30
2017-09-22T03:10:33.372Z,100591.29
2017-09-22T03:13:02.449Z,100592.89
2017-09-22T03:15:32.435Z,100595.94
2017-09-22T03:18:01.500Z,100586.80
2017-09-22T03:20:30.549Z,100589.55
2017-09-22T03:23:00.423Z,100587.00
2017-09-22T03:25:29.767Z,100589.55
2017-09-22T03:27:59.033Z,100589.39
2017-09-22T03:30:28.129Z,100589.31
2017-09-22T03:32:57.195Z,100591.08
2017-09-22T03:35:26.278Z,100588.91
2017-09-22T03:37:55.345Z,100582.20
2017-09-22T03:40:24.422Z,100590.55
2017-09-22T03:42:53.493Z,100589.25
2017-09-22T03:45:22.583Z,100589.97
2017-09-22T03:47:51.774Z,100591.90
2017-09-22T03:50:21.037Z,100593.03
2017-09-22T03:52:50.905Z,100594.79
2017-09-22T03:55:19.957Z,100589.11
2017-09-22T03:57:49.801Z,100593.66
2017-09-22T04:00:18.867Z,100596.48
2017-09-22T04:02:47.976Z,100596.64
2017-09-22T04:05:17.052Z,100591.83
2017-09-22T04:07:46.871Z,100598.23
2017-09-22T04:10:15.948Z,100598.39
2017-09-22T04:12:45.001Z,100593.27
2017-09-22T04:15:14.287Z,100589.42
2017-09-22T04:17:43.360Z,100588.86
2017-09-22T04:20:13.174Z,100590.48
2017-09-22T04:22:42.252Z,100588.31
2017-09-22T04:25:12.088Z,100586.45
2017-09-22T04:27:41.176Z,100589.51
2017-09-22T04:30:11.012Z,100586.15
2017-09-22T04:32:40.064Z,100588.48
2017-09-22T04:35:09.940Z,100587.67
2017-09-22T04:37:39.004Z,100592.42
2017-09-22T04:40:08.073Z,100589.53
2017-09-22T04:42:37.936Z,100585.12
2017-09-22T04:45:07.001Z,100594.98
2017-09-22T04:47:36.088Z,100602.41
2017-09-22T04:50:05.934Z,100589.27
2017-09-22T04:52:34.971Z,100599.36
2017-09-22T04:55:05.924Z,100601.06
2017-09-22T04:57:34.951Z,100600.83
2017-09-22T05:00:04.057Z,100599.13
2017-09-22T05:02:33.108Z,100606.50
2017-09-22T05:05:02.973Z,100606.09
2017-09-22T05:07:32.031Z,100609.63
2017-09-22T05:10:01.093Z,100606.42
2017-09-22T05:12:31.688Z,100604.59
2017-09-22T05:15:00.774Z,100612.66
2017-09-22T05:17:29.856Z,100608.44
2017-09-22T05:19:58.917Z,100617.47
2017-09-22T05:22:27.973Z,100615.55
2017-09-22T05:24:57.110Z,100609.64
2017-09-22T05:27:26.160Z,100620.12
2017-09-22T05:29:55.215Z,100616.44
2017-09-22T05:32:25.056Z,100619.00
2017-09-22T05:34:54.120Z,100625.33
2017-09-22T05:37:23.996Z,100630.14
2017-09-22T05:39:53.064Z,100627.73
2017-09-22T05:42:22.242Z,100626.27
2017-09-22T05:44:51.316Z,100626.85
2017-09-22T05:47:20.379Z,100632.38
2017-09-22T05:49:49.502Z,100632.31
2017-09-22T05:52:18.517Z,100632.31
2017-09-22T05:54:48.357Z,100629.98
2017-09-22T05:57:17.416Z,100632.31
2017-09-22T05:59:47.237Z,100634.88
2017-09-22T06:02:17.089Z,100632.55
2017-09-22T06:04:46.139Z,100638.53
2017-09-22T06:07:16.005Z,100642.30
2017-09-22T06:09:45.076Z,100642.64
2017-09-22T06:12:14.167Z,100641.41
2017-09-22T06:14:43.224Z,100649.53
2017-09-22T06:17:13.082Z,100641.27
2017-09-22T06:19:42.141Z,100646.07
2017-09-22T06:22:12.091Z,100635.65
2017-09-22T06:24:41.917Z,100630.41
2017-09-22T06:27:10.986Z,100635.95
2017-09-22T06:29:40.063Z,100637.72
2017-09-22T06:32:10.364Z,100637.39
2017-09-22T06:34:40.933Z,100642.68
2017-09-22T06:37:10.020Z,100648.60
2017-09-22T06:39:39.857Z,100644.82
2017-09-22T06:42:08.919Z,100647.45
2017-09-22T06:44:38.895Z,100658.66
2017-09-22T06:47:07.979Z,100660.23
2017-09-22T06:49:37.192Z,100662.88
2017-09-22T06:52:06.247Z,100661.02
2017-09-22T06:54:35.315Z,100655.83
2017-09-22T06:57:05.147Z,100661.58
2017-09-22T06:59:34.997Z,100664.99
2017-09-22T07:02:04.088Z,100658.30
2017-09-22T07:04:33.331Z,100666.88
2017-09-22T07:07:02.406Z,100660.36
2017-09-22T07:09:32.612Z,100675.03
2017-09-22T07:12:01.687Z,100669.17
2017-09-22T07:14:30.766Z,100680.25
2017-09-22T07:17:00.578Z,100674.11
2017-09-22T07:19:30.457Z,100670.31
2017-09-22T07:22:01.019Z,100671.28
2017-09-22T07:24:30.104Z,100677.28
2017-09-22T07:27:00.217Z,100676.11
2017-09-22T07:29:29.256Z,100676.55
2017-09-22T07:31:58.337Z,100678.14
2017-09-22T07:34:27.398Z,100678.01
2017-09-22T07:36:56.580Z,100683.99
2017-09-22T07:39:25.650Z,100685.80
2017-09-22T07:41:54.709Z,100688.34
2017-09-22T07:44:24.547Z,100690.78
2017-09-22T07:46:53.612Z,100698.41
2017-09-22T07:49:23.473Z,100698.05
2017-09-22T07:51:52.608Z,100699.20
2017-09-22T07:54:22.439Z,100698.84
2017-09-22T07:56:51.562Z,100691.83
2017-09-22T07:59:20.613Z,100691.03
2017-09-22T08:01:50.463Z,100690.98
2017-09-22T08:04:19.520Z,100693.36
2017-09-22T08:06:48.684Z,100698.34
2017-09-22T08:09:17.744Z,100695.05
2017-09-22T08:11:46.823Z,100691.26
2017-09-22T08:14:16.644Z,100692.73
2017-09-22T08:16:45.731Z,100695.58
2017-09-22T08:19:14.784Z,100695.36
2017-09-22T08:21:43.845Z,100694.94
2017-09-22T08:24:12.912Z,100691.63
2017-09-22T08:26:42.731Z,100689.41
2017-09-22T08:29:12.016Z,100689.81
2017-09-22T08:31:41.850Z,100693.21
2017-09-22T08:34:10.928Z,100692.31
2017-09-22T08:36:41.514Z,100690.87
2017-09-22T08:39:10.571Z,100696.44
2017-09-22T08:41:39.676Z,100697.84
2017-09-22T08:44:08.723Z,100696.70
2017-09-22T08:46:37.825Z,100698.05
2017-09-22T08:49:07.693Z,100699.20
2017-09-22T08:51:36.740Z,100690.39
2017-09-22T08:54:06.643Z,100695.92
2017-09-22T08:56:35.759Z,100693.37
2017-09-22T08:59:04.818Z,100693.55
2017-09-22T09:01:33.884Z,100698.47
2017-09-22T09:04:02.942Z,100696.41
2017-09-22T09:06:32.758Z,100698.86
2017-09-22T09:09:02.647Z,100691.56
2017-09-22T09:11:31.725Z,100691.55
2017-09-22T09:14:00.797Z,100685.26
2017-09-22T09:16:30.188Z,100683.45
2017-09-22T09:18:59.240Z,100684.06
2017-09-22T09:21:28.308Z,100692.55
2017-09-22T09:23:57.444Z,100688.11
2017-09-22T09:26:26.508Z,100687.89
2017-09-22T09:28:55.596Z,100690.30
2017-09-22T09:31:24.670Z,100680.20
2017-09-22T09:33:53.729Z,100690.30
2017-09-22T09:36:23.596Z,100688.13
2017-09-22T09:38:52.666Z,100684.85
2017-09-22T09:41:21.745Z,100683.72
2017-09-22T09:43:51.657Z,100681.40
2017-09-22T09:46:21.485Z,100678.65
2017-09-22T09:48:50.753Z,100684.36
2017-09-22T09:51:19.821Z,100677.97
2017-09-22T09:53:48.884Z,100682.10
2017-09-22T09:56:17.977Z,100681.57
2017-09-22T09:58:47.054Z,100684.96
2017-09-22T10:01:16.870Z,100680.98
2017-09-22T10:03:45.957Z,100681.49
2017-09-22T10:06:15.789Z,100684.46
2017-09-22T10:08:44.867Z,100680.90
2017-09-22T10:11:14.690Z,100677.13
2017-09-22T10:13:43.785Z,100683.89
2017-09-22T10:16:12.859Z,100682.05
2017-09-22T10:18:41.936Z,100681.86
2017-09-22T10:21:11.007Z,100681.86
2017-09-22T10:23:40.079Z,100681.33
2017-09-22T10:26:09.156Z,100678.63
2017-09-22T10:28:38.988Z,100676.50
2017-09-22T10:31:08.049Z,100676.28
2017-09-22T10:33:37.131Z,100673.61
2017-09-22T10:36:06.256Z,100676.73
2017-09-22T10:38:36.115Z,100671.94
2017-09-22T10:41:05.159Z,100680.41
2017-09-22T10:43:34.984Z,100682.01
2017-09-22T10:46:04.929Z,100679.34
2017-09-22T10:48:34.005Z,100678.44
2017-09-22T10:51:03.089Z,100673.55
2017-09-22T10:53:32.158Z,100678.31
2017-09-22T10:56:01.222Z,100673.41
2017-09-22T10:58:30.332Z,100676.31
2017-09-22T11:00:59.392Z,100675.03
2017-09-22T11:03:28.480Z,100687.41
2017-09-22T11:05:57.553Z,100689.72
2017-09-22T11:08:27.396Z,100690.48
2017-09-22T11:10:56.449Z,100686.82
2017-09-22T11:13:26.293Z,100685.27
2017-09-22T11:15:55.364Z,100685.85
2017-09-22T11:18:25.177Z,100681.36
2017-09-22T11:20:55.068Z,100679.34
2017-09-22T11:23:25.633Z,100683.38
2017-09-22T11:25:55.479Z,100686.26
2017-09-22T11:28:24.647Z,100695.95
2017-09-22T11:30:53.691Z,100692.72
2017-09-22T11:33:22.809Z,100687.56
2017-09-22T11:35:53.379Z,100690.23
2017-09-22T11:38:22.470Z,100686.41
2017-09-22T11:40:51.559Z,100681.06
2017-09-22T11:43:20.626Z,100681.41
2017-09-22T11:45:49.676Z,100673.16
2017-09-22T11:48:18.756Z,100683.03
2017-09-22T11:50:47.819Z,100680.27
2017-09-22T11:53:17.668Z,100684.38
2017-09-22T11:55:46.728Z,100685.36
2017-09-22T11:58:15.825Z,100683.34
2017-09-22T12:00:44.881Z,100683.45
2017-09-22T12:03:14.072Z,100683.14
2017-09-22T12:05:43.120Z,100684.31
2017-09-22T12:08:12.958Z,100681.29
2017-09-22T12:10:42.023Z,100681.88
2017-09-22T12:13:11.888Z,100677.53
2017-09-22T12:15:40.967Z,100682.66
2017-09-22T12:18:10.032Z,100678.97
2017-09-22T12:20:39.868Z,100674.84
2017-09-22T12:23:08.939Z,100675.02
2017-09-22T12:25:38.775Z,100669.73
2017-09-22T12:28:07.864Z,100665.38
2017-09-22T12:30:37.678Z,100667.05
2017-09-22T12:33:06.774Z,100671.69
2017-09-22T12:35:35.834Z,100670.50
2017-09-22T12:38:04.988Z,100663.36
2017-09-22T12:40:34.046Z,100667.12
2017-09-22T12:43:03.908Z,100666.34
2017-09-22T12:45:32.976Z,100660.16
2017-09-22T12:48:02.072Z,100660.34
2017-09-22T12:50:31.916Z,100658.50
2017-09-22T12:53:00.981Z,100663.21
2017-09-22T12:55:30.047Z,100665.67
2017-09-22T12:57:59.894Z,100666.30
2017-09-22T13:00:28.949Z,100681.42
2017-09-22T13:02:58.816Z,100679.00
2017-09-22T13:05:27.902Z,100680.36
2017-09-22T13:07:57.016Z,100682.52
2017-09-22T13:10:26.106Z,100682.83
2017-09-22T13:12:55.191Z,100688.17
2017-09-22T13:15:24.293Z,100683.19
2017-09-22T13:17:53.523Z,100691.13
2017-09-22T13:20:22.748Z,100687.38
2017-09-22T13:22:52.612Z,100681.46
2017-09-22T13:25:21.676Z,100677.78
2017-09-22T13:27:50.731Z,100679.86
2017-09-22T13:30:19.819Z,100679.84
2017-09-22T13:32:48.930Z,100686.98
2017-09-22T13:35:17.978Z,100679.89
2017-09-22T13:37:47.038Z,100685.29
2017-09-22T13:40:16.907Z,100684.80
2017-09-22T13:42:46.109Z,100687.64
2017-09-22T13:45:15.316Z,100689.59
2017-09-22T13:47:44.395Z,100684.92
2017-09-22T13:50:13.718Z,100680.36
2017-09-22T13:52:42.826Z,100677.70
2017-09-22T13:55:11.872Z,100683.27
2017-09-22T13:57:40.962Z,100690.20
2017-09-22T14:00:10.093Z,100687.92
2017-09-22T14:02:39.156Z,100674.64
2017-09-22T14:05:08.217Z,100686.33
2017-09-22T14:07:38.041Z,100684.97
2017-09-22T14:10:07.945Z,100683.78
2017-09-22T14:12:40.526Z,100689.55
2017-09-22T14:15:10.399Z,100688.23
2017-09-22T14:17:39.449Z,100686.08
2017-09-22T14:20:08.605Z,100686.56
2017-09-22T14:22:37.685Z,100684.81
2017-09-22T14:25:08.031Z,100681.50
2017-09-22T14:27:37.094Z,100689.80
2017-09-22T14:30:06.171Z,100682.50
2017-09-22T14:32:35.256Z,100689.80
2017-09-22T14:35:04.312Z,100692.89
2017-09-22T14:37:34.183Z,100696.49
2017-09-22T14:40:03.404Z,100690.33
2017-09-22T14:42:32.489Z,100693.86
2017-09-22T14:45:01.551Z,100692.95
2017-09-22T14:47:30.640Z,100694.27
2017-09-22T14:50:00.443Z,100693.07
2017-09-22T14:52:30.302Z,100695.02
2017-09-22T14:54:59.367Z,100695.38
2017-09-22T14:57:28.457Z,100690.44
2017-09-22T14:59:58.295Z,100688.55
2017-09-22T15:02:27.526Z,100692.45
2017-09-22T15:04:56.580Z,100692.91
2017-09-22T15:07:25.648Z,100691.77
2017-09-22T15:09:55.485Z,100696.16
2017-09-22T15:12:24.548Z,100695.89
2017-09-22T15:14:54.368Z,100700.80
2017-09-22T15:17:24.216Z,100694.83
2017-09-22T15:19:53.296Z,100702.73
2017-09-22T15:22:22.364Z,100697.23
2017-09-22T15:24:52.205Z,100697.48
2017-09-22T15:27:21.292Z,100700.00
2017-09-22T15:29:50.352Z,100699.97
2017-09-22T15:32:19.413Z,100699.12
2017-09-22T15:34:48.483Z,100699.70
2017-09-22T15:37:17.568Z,100699.12
2017-09-22T15:39:47.408Z,100709.56
2017-09-22T15:42:16.509Z,100706.20
2017-09-22T15:44:46.240Z,100705.61
2017-09-22T15:47:15.330Z,100709.44
2017-09-22T15:49:44.388Z,100713.38
2017-09-22T15:52:13.477Z,100719.31
2017-09-22T15:54:42.746Z,100716.75
2017-09-22T15:57:11.802Z,100720.95
2017-09-22T15:59:41.535Z,100718.22
2017-09-22T16:02:10.579Z,100721.82
2017-09-22T16:04:40.424Z,100720.47
2017-09-22T16:07:09.479Z,100720.53
2017-09-22T16:09:39.336Z,100714.44
2017-09-22T16:12:08.391Z,100715.63
2017-09-22T16:14:37.525Z,100723.71
2017-09-22T16:17:06.779Z,100718.02
2017-09-22T16:19:36.612Z,100721.73
2017-09-22T16:22:05.680Z,100721.52
2017-09-22T16:24:34.825Z,100721.33
2017-09-22T16:27:03.897Z,100725.03
2017-09-22T16:29:33.737Z,100724.01
2017-09-22T16:32:02.801Z,100725.13
2017-09-22T16:34:31.881Z,100721.15
2017-09-22T16:37:01.231Z,100726.89
2017-09-22T16:39:30.330Z,100728.95
2017-09-22T16:41:59.397Z,100730.30
2017-09-22T16:44:28.497Z,100727.16
2017-09-22T16:46:57.552Z,100730.45
2017-09-22T16:49:26.642Z,100729.62
2017-09-22T16:51:55.695Z,100736.23
2017-09-22T16:54:24.783Z,100738.32
2017-09-22T16:56:53.834Z,100737.09
2017-09-22T16:59:22.914Z,100740.73
2017-09-22T17:01:52.009Z,100746.34
2017-09-22T17:04:22.777Z,100740.27
2017-09-22T17:06:52.596Z,100742.84
2017-09-22T17:09:21.667Z,100744.41
2017-09-22T17:11:50.784Z,100750.67
2017-09-22T17:14:20.661Z,100754.41
2017-09-22T17:16:50.727Z,100751.69
2017-09-22T17:19:19.775Z,100753.91
2017-09-22T17:21:48.836Z,100753.47
2017-09-22T17:24:17.986Z,100749.80
2017-09-22T17:26:47.047Z,100763.61
2017-09-22T17:29:16.088Z,100758.97
2017-09-22T17:31:45.894Z,100760.99
2017-09-22T17:34:15.782Z,100763.13
2017-09-22T17:36:44.847Z,100761.00
2017-09-22T17:39:13.937Z,100767.72
2017-09-22T17:41:42.976Z,100766.07
2017-09-22T17:44:12.061Z,100767.93
2017-09-22T17:46:41.117Z,100765.05
2017-09-22T17:49:10.199Z,100771.29
2017-09-22T17:51:40.023Z,100779.72
2017-09-22T17:54:09.082Z,100783.36
2017-09-22T17:56:38.897Z,100777.97
2017-09-22T17:59:08.829Z,100777.08
2017-09-22T18:01:37.900Z,100777.38
2017-09-22T18:04:06.993Z,100780.09
2017-09-22T18:06:36.062Z,100785.06
2017-09-22T18:09:05.172Z,100787.34
2017-09-22T18:11:35.203Z,100786.45
2017-09-22T18:14:10.092Z,100787.14
2017-09-22T18:16:39.170Z,100794.75
2017-09-22T18:19:08.260Z,100799.34
2017-09-22T18:21:37.382Z,100800.29
2017-09-22T18:24:06.453Z,100805.49
2017-09-22T18:26:35.747Z,100813.05
2017-09-22T18:29:04.826Z,100803.05
2017-09-22T18:31:34.666Z,100812.41
2017-09-22T18:34:03.741Z,100813.27
2017-09-22T18:36:33.577Z,100820.58
2017-09-22T18:39:02.616Z,100816.92
2017-09-22T18:41:31.687Z,100826.64
2017-09-22T18:44:00.764Z,100829.75
2017-09-22T18:46:29.857Z,100838.39
2017-09-22T18:48:59.046Z,100838.46
2017-09-22T18:51:28.105Z,100833.12
2017-09-22T18:53:57.202Z,100832.02
2017-09-22T18:56:26.264Z,100837.37
2017-09-22T18:58:55.384Z,100844.12
2017-09-22T19:01:24.467Z,100848.69
2017-09-22T19:03:53.521Z,100844.42
2017-09-22T19:06:22.600Z,100845.19
2017-09-22T19:08:52.605Z,100847.20
2017-09-22T19:11:22.436Z,100846.59
2017-09-22T19:13:52.429Z,100852.36
2017-09-22T19:16:22.278Z,100854.09
2017-09-22T19:18:51.367Z,100849.66
2017-09-22T19:21:20.428Z,100855.61
2017-09-22T19:23:49.521Z,100858.41
2017-09-22T19:26:18.587Z,100860.09
2017-09-22T19:28:47.690Z,100862.04
2017-09-22T19:31:16.806Z,100859.65
2017-09-22T19:33:45.876Z,100863.02
2017-09-22T19:36:14.945Z,100863.95
2017-09-22T19:38:44.023Z,100866.05
2017-09-22T19:41:13.134Z,100868.17
2017-09-22T19:43:42.210Z,100866.92
2017-09-22T19:46:12.099Z,100860.81
2017-09-22T19:48:41.169Z,100860.30
2017-09-22T19:51:10.300Z,100867.95
2017-09-22T19:53:39.336Z,100868.44
2017-09-22T19:56:08.397Z,100862.77
2017-09-22T19:58:38.286Z,100865.21
2017-09-22T20:01:08.149Z,100866.77
2017-09-22T20:03:37.216Z,100874.59
2017-09-22T20:06:07.079Z,100880.30
2017-09-22T20:08:36.188Z,100877.78
2017-09-22T20:11:05.297Z,100875.91
2017-09-22T20:13:34.365Z,100878.44
2017-09-22T20:16:03.432Z,100876.02
2017-09-22T20:18:32.525Z,100876.66
2017-09-22T20:21:01.604Z,100870.34
2017-09-22T20:23:31.654Z,100876.19
2017-09-22T20:26:00.772Z,100871.45
2017-09-22T20:28:29.869Z,100877.86
2017-09-22T20:30:58.969Z,100881.18
2017-09-22T20:33:28.061Z,100889.19
2017-09-22T20:35:57.153Z,100888.14
2017-09-22T20:38:26.433Z,100891.19
2017-09-22T20:40:55.546Z,100888.05
2017-09-22T20:43:24.617Z,100886.59
2017-09-22T20:45:53.718Z,100895.08
2017-09-22T20:48:22.780Z,100892.08
2017-09-22T20:50:52.919Z,100897.16
2017-09-22T20:53:22.768Z,100895.17
2017-09-22T20:55:51.850Z,100895.17
2017-09-22T20:58:20.956Z,100893.63
2017-09-22T21:00:50.036Z,100894.42
2017-09-22T21:03:19.119Z,100891.23
2017-09-22T21:05:48.376Z,100895.75
2017-09-22T21:08:17.438Z,100895.92
2017-09-22T21:10:46.552Z,100901.59
2017-09-22T21:13:15.635Z,100901.01
2017-09-22T21:15:44.707Z,100907.81
2017-09-22T21:18:13.788Z,100901.95
2017-09-22T21:20:42.998Z,100903.67
2017-09-22T21:23:12.062Z,100905.05
2017-09-22T21:25:41.885Z,100906.41
2017-09-22T21:28:11.755Z,100907.09
2017-09-22T21:30:40.817Z,100914.69
2017-09-22T21:33:09.896Z,100914.45
2017-09-22T21:35:39.720Z,100923.30
2017-09-22T21:38:08.867Z,100913.77
2017-09-22T21:40:37.923Z,100911.76
2017-09-22T21:43:07.000Z,100917.70
2017-09-22T21:45:36.989Z,100914.38
2017-09-22T21:48:06.824Z,100912.78
2017-09-22T21:50:38.018Z,100913.30
2017-09-22T21:53:07.068Z,100912.55
2017-09-22T21:55:36.145Z,100907.42
2017-09-22T21:58:05.979Z,100909.81
2017-09-22T22:00:35.081Z,100910.96
2017-09-22T22:03:09.591Z,100908.39
2017-09-22T22:05:38.672Z,100913.62
2017-09-22T22:08:08.653Z,100918.56
2017-09-22T22:10:37.718Z,100915.14
2017-09-22T22:13:06.824Z,100916.86
2017-09-22T22:15:35.867Z,100910.05
2017-09-22T22:18:05.684Z,100916.22
2017-09-22T22:20:35.531Z,100905.00
2017-09-22T22:23:04.595Z,100904.95
2017-09-22T22:25:34.426Z,100908.00
2017-09-22T22:28:03.497Z,100910.34
2017-09-22T22:30:33.353Z,100902.73
2017-09-22T22:33:02.413Z,100902.20
2017-09-22T22:35:32.303Z,100907.13
2017-09-22T22:38:01.376Z,100912.11
2017-09-22T22:40:30.454Z,100910.03
2017-09-22T22:42:59.566Z,100917.07
2017-09-22T22:45:28.611Z,100923.58
2017-09-22T22:47:58.473Z,100923.08
2017-09-22T22:50:27.606Z,100928.23
2017-09-22T22:52:56.685Z,100930.41
2017-09-22T22:55:25.800Z,100937.95
2017-09-22T22:57:55.640Z,100943.71
2017-09-22T23:00:24.705Z,100943.62
2017-09-22T23:02:54.618Z,100939.59
2017-09-22T23:05:23.697Z,100942.47
2017-09-22T23:07:53.094Z,100942.12
2017-09-22T23:10:22.163Z,100941.54
2017-09-22T23:12:51.242Z,100943.27
2017-09-22T23:15:20.309Z,100942.98
2017-09-22T23:17:49.399Z,100939.45
2017-09-22T23:20:18.648Z,100939.36
2017-09-22T23:22:47.712Z,100940.47
2017-09-22T23:25:17.567Z,100947.84
2017-09-22T23:27:46.655Z,100950.69
2017-09-22T23:30:15.728Z,100944.45
2017-09-22T23:32:44.784Z,100944.19
2017-09-22T23:35:14.037Z,100954.23
2017-09-22T23:37:43.859Z,100958.89
2017-09-22T23:40:12.948Z,100951.31
2017-09-22T23:42:42.024Z,100957.42
2017-09-22T23:45:11.069Z,100960.56
2017-09-22T23:47:40.150Z,100953.64
2017-09-22T23:50:09.221Z,100953.59
2017-09-22T23:52:38.328Z,100960.33
2017-09-22T23:55:07.408Z,100955.16
2017-09-22T23:57:37.218Z,100953.48
